Edgar G. Obie (S71)
Chinook, MT
Field Elevation: 2416
Lat: 48°35.32N  Long: 109°15.02W
CTAF/Unicom Freq: 122.8000
   
    
Weather Advisories
2017-11-22   14:24 Z
Altimeter 29.84" Hg
Wind 260° @ 14 KT
Gusts 22 KT
Visibility 10 SM
Temperature 15° C (59° F)
Dewpoint 4° C (39° F)
Relative Humidity 50%
Density Altitude --
Condensation Altitude 7,700 feet
Wind and Runways
Indicated Runway = 26
Headwind = 14 kt
Crosswind = 0 kt
History
 
 
 
More Info
NOAA Forecast
 
 
About Us
Belfort Instrument
 
 
FAA Disclaimer: The data displayed is for advisory purposes only and is not to be used for flight planning or operations. For official data, please call (not available) to hear the current automated AWOS voice message.
  METAR S71 221424Z AUTO 26014G22KT 10 SM 15/04 A2984